Terminal Aerodrome Forecast
Issued by NWS Hastings, NE

Home | Current Version | Previous Version | Text Only | Print | Product List | Glossary On
Versions: 1 2 3 4 5 6 7 8 9 10 11 12 13 14 15 16 17 18 19
479
FTUS45 KGID 232335
TAFEAR
TAF
KEAR 232335Z 2400/2424 03016G23KT 2SM -SN SCT003 OVC008
     FM240400 01019G27KT 1SM -SN BLSN OVC003
     FM241200 35020G28KT 1SM -SN BLSN OVC003
     FM241600 35020G28KT 2SM BLSN SCT003 OVC007
     FM242100 34019G27KT P6SM OVC015
      AMD LTD TO CLD VIS AND WIND=

USA.gov is the U.S. government's official web portal to all federal, state and local government web resources and services.